createdAt,value
2018-04-26T00:01:44.579Z,13.46
2018-04-26T00:04:13.118Z,13.43
2018-04-26T00:06:41.522Z,13.30
2018-04-26T00:09:09.953Z,13.20
2018-04-26T00:11:38.379Z,13.13
2018-04-26T00:14:06.784Z,13.17
2018-04-26T00:16:35.226Z,13.04
2018-04-26T00:19:03.688Z,13.08
2018-04-26T00:21:32.095Z,13.07
2018-04-26T00:24:00.587Z,13.05
2018-04-26T00:26:28.999Z,12.80
2018-04-26T00:28:57.436Z,12.95
2018-04-26T00:31:25.830Z,12.70
2018-04-26T00:33:55.968Z,12.47
2018-04-26T00:36:24.695Z,12.49
2018-04-26T00:38:53.199Z,12.30
2018-04-26T00:41:21.624Z,12.25
2018-04-26T00:43:50.335Z,12.23
2018-04-26T00:46:18.739Z,12.22
2018-04-26T00:48:47.132Z,12.09
2018-04-26T00:51:15.586Z,12.11
2018-04-26T00:53:43.992Z,11.98
2018-04-26T00:56:12.736Z,11.94
2018-04-26T00:58:41.152Z,12.12
2018-04-26T01:01:09.599Z,11.83
2018-04-26T01:03:38.045Z,11.82
2018-04-26T01:06:06.510Z,11.85
2018-04-26T01:08:34.931Z,11.91
2018-04-26T01:11:03.380Z,11.94
2018-04-26T01:13:31.900Z,11.97
2018-04-26T01:16:00.315Z,11.93
2018-04-26T01:18:30.755Z,11.91
2018-04-26T01:21:01.246Z,11.90
2018-04-26T01:23:29.674Z,11.89
2018-04-26T01:25:58.079Z,11.82
2018-04-26T01:28:26.526Z,11.77
2018-04-26T01:30:55.091Z,11.75
2018-04-26T01:33:23.505Z,11.64
2018-04-26T01:35:51.912Z,11.88
2018-04-26T01:38:22.487Z,11.82
2018-04-26T01:40:53.056Z,11.87
2018-04-26T01:43:21.483Z,11.81
2018-04-26T01:45:49.919Z,11.75
2018-04-26T01:48:20.499Z,11.71
2018-04-26T01:50:49.238Z,11.73
2018-04-26T01:53:17.643Z,11.77
2018-04-26T01:55:46.066Z,11.78
2018-04-26T01:58:14.536Z,11.55
2018-04-26T02:00:45.120Z,11.18
2018-04-26T02:03:15.760Z,11.24
2018-04-26T02:05:46.296Z,11.03
2018-04-26T02:08:14.712Z,11.13
2018-04-26T02:10:43.175Z,11.07
2018-04-26T02:13:13.603Z,11.18
2018-04-26T02:15:42.331Z,11.11
2018-04-26T02:18:10.754Z,11.13
2018-04-26T02:20:39.242Z,11.11
2018-04-26T02:23:09.996Z,11.01
2018-04-26T02:25:40.252Z,10.94
2018-04-26T02:28:11.101Z,11.00
2018-04-26T02:30:39.516Z,11.07
2018-04-26T02:33:07.915Z,10.98
2018-04-26T02:35:36.640Z,11.05
2018-04-26T02:38:05.058Z,11.11
2018-04-26T02:40:33.487Z,11.15
2018-04-26T02:43:04.124Z,11.15
2018-04-26T02:45:32.614Z,11.15
2018-04-26T02:48:01.119Z,11.14
2018-04-26T02:50:29.535Z,10.96
2018-04-26T02:52:58.143Z,10.90
2018-04-26T02:55:26.563Z,10.90
2018-04-26T02:57:54.965Z,10.89
2018-04-26T03:00:23.408Z,10.86
2018-04-26T03:02:54.014Z,10.76
2018-04-26T03:05:22.547Z,10.76
2018-04-26T03:07:50.972Z,10.70
2018-04-26T03:10:19.427Z,10.50
2018-04-26T03:12:47.939Z,10.66
2018-04-26T03:15:19.528Z,10.43
2018-04-26T03:17:50.033Z,10.49
2018-04-26T03:20:18.445Z,10.47
2018-04-26T03:22:46.851Z,10.55
2018-04-26T03:25:17.403Z,10.47
2018-04-26T03:27:47.672Z,10.35
2018-04-26T03:30:20.193Z,10.18
2018-04-26T03:32:48.613Z,10.24
2018-04-26T03:35:17.063Z,10.17
2018-04-26T03:37:45.835Z,10.08
2018-04-26T03:40:14.244Z,10.14
2018-04-26T03:42:42.651Z,10.13
2018-04-26T03:45:11.134Z,10.19
2018-04-26T03:47:39.571Z,10.23
2018-04-26T03:50:10.095Z,10.26
2018-04-26T03:52:40.210Z,10.21
2018-04-26T03:55:08.611Z,10.14
2018-04-26T03:57:37.019Z,10.22
2018-04-26T04:00:11.618Z,10.28
2018-04-26T04:02:45.992Z,10.39
2018-04-26T04:05:15.444Z,10.27
2018-04-26T04:07:43.861Z,10.24
2018-04-26T04:10:12.312Z,10.13
2018-04-26T04:12:41.069Z,9.92
2018-04-26T04:15:09.498Z,9.93
2018-04-26T04:17:40.111Z,9.91
2018-04-26T04:20:10.686Z,9.90
2018-04-26T04:22:41.240Z,10.00
2018-04-26T04:25:09.668Z,9.98
2018-04-26T04:27:38.079Z,10.00
2018-04-26T04:30:06.798Z,9.93
2018-04-26T04:32:35.333Z,9.90
2018-04-26T04:35:03.763Z,9.91
2018-04-26T04:37:33.101Z,9.92
2018-04-26T04:40:01.810Z,9.73
2018-04-26T04:42:30.252Z,9.95
2018-04-26T04:44:58.727Z,10.00
2018-04-26T04:47:29.403Z,9.91
2018-04-26T04:49:57.815Z,10.06
2018-04-26T04:52:28.427Z,10.05
2018-04-26T04:54:59.083Z,10.06
2018-04-26T04:57:27.503Z,9.99
2018-04-26T04:59:55.908Z,9.94
2018-04-26T05:02:26.096Z,9.71
2018-04-26T05:04:54.570Z,9.86
2018-04-26T05:07:23.074Z,9.85
2018-04-26T05:09:51.536Z,9.93
2018-04-26T05:12:20.260Z,10.03
2018-04-26T05:14:50.764Z,10.17
2018-04-26T05:17:19.275Z,10.35
2018-04-26T05:19:47.771Z,10.59
2018-04-26T05:22:20.090Z,10.70
2018-04-26T05:24:48.507Z,10.98
2018-04-26T05:27:20.763Z,11.46
2018-04-26T05:29:49.171Z,11.42
2018-04-26T05:32:17.583Z,11.41
2018-04-26T05:34:49.743Z,11.56
2018-04-26T05:37:19.803Z,11.82
2018-04-26T05:39:48.217Z,12.03
2018-04-26T05:42:16.659Z,12.05
2018-04-26T05:44:45.076Z,12.25
2018-04-26T05:47:13.835Z,12.13
2018-04-26T05:49:42.212Z,12.09
2018-04-26T05:52:12.668Z,12.40
2018-04-26T05:54:41.094Z,12.68
2018-04-26T05:57:09.508Z,12.86
2018-04-26T05:59:38.188Z,13.14
2018-04-26T06:02:06.639Z,13.13
2018-04-26T06:04:35.056Z,13.40
2018-04-26T06:07:05.310Z,13.51
2018-04-26T06:09:33.688Z,13.67
2018-04-26T06:12:02.048Z,13.62
2018-04-26T06:14:30.819Z,13.93
2018-04-26T06:16:59.364Z,14.08
2018-04-26T06:19:31.403Z,14.26
2018-04-26T06:21:59.845Z,14.26
2018-04-26T06:24:28.238Z,14.49
2018-04-26T06:26:56.706Z,14.59
2018-04-26T06:29:25.116Z,14.74
2018-04-26T06:31:55.083Z,14.89
2018-04-26T06:34:23.501Z,14.70
2018-04-26T06:36:52.260Z,14.26
2018-04-26T06:39:22.771Z,13.96
2018-04-26T06:41:51.191Z,13.79
2018-04-26T06:44:19.609Z,13.64
2018-04-26T06:46:48.038Z,14.12
2018-04-26T06:49:16.491Z,14.62
2018-04-26T06:51:44.895Z,15.11
2018-04-26T06:54:13.343Z,15.41
2018-04-26T06:56:41.992Z,14.78
2018-04-26T06:59:10.407Z,14.76
2018-04-26T07:01:38.814Z,15.38
2018-04-26T07:04:07.212Z,15.29
2018-04-26T07:06:35.728Z,14.93
2018-04-26T07:09:04.445Z,14.94
2018-04-26T07:11:32.929Z,14.56
2018-04-26T07:14:01.312Z,14.73
2018-04-26T07:16:29.763Z,14.68
2018-04-26T07:18:58.238Z,15.57
2018-04-26T07:21:26.623Z,15.87
2018-04-26T07:23:55.051Z,15.78
2018-04-26T07:26:23.563Z,16.25
2018-04-26T07:28:52.004Z,15.99
2018-04-26T07:31:20.455Z,15.46
2018-04-26T07:33:48.843Z,15.45
2018-04-26T07:36:17.311Z,15.38
2018-04-26T07:38:45.736Z,15.70
2018-04-26T07:41:15.718Z,15.13
2018-04-26T07:43:44.139Z,14.59
2018-04-26T07:46:12.546Z,14.57
2018-04-26T07:48:40.980Z,14.67
2018-04-26T07:51:09.363Z,15.26
2018-04-26T07:53:37.759Z,15.14
2018-04-26T07:56:06.267Z,15.75
2018-04-26T07:58:34.666Z,15.69
2018-04-26T08:01:03.188Z,15.64
2018-04-26T08:03:31.624Z,15.32
2018-04-26T08:06:00.444Z,14.46
2018-04-26T08:08:28.951Z,14.89
2018-04-26T08:10:57.435Z,16.31
2018-04-26T08:13:25.917Z,17.46
2018-04-26T08:15:54.433Z,18.42
2018-04-26T08:18:22.819Z,19.32
2018-04-26T08:20:51.250Z,19.96
2018-04-26T08:23:19.636Z,19.57
2018-04-26T08:25:48.092Z,18.15
2018-04-26T08:28:22.579Z,17.20
2018-04-26T08:30:51.013Z,16.47
2018-04-26T08:33:21.415Z,15.78
2018-04-26T08:35:49.920Z,14.93
2018-04-26T08:38:19.903Z,14.77
2018-04-26T08:40:48.376Z,14.70
2018-04-26T08:43:16.798Z,14.53
2018-04-26T08:45:47.318Z,14.44
2018-04-26T08:48:20.190Z,14.75
2018-04-26T08:50:48.623Z,14.58
2018-04-26T08:53:17.051Z,14.94
2018-04-26T08:55:45.489Z,15.15
2018-04-26T08:58:15.252Z,16.14
2018-04-26T09:00:43.690Z,17.23
2018-04-26T09:03:12.363Z,17.91
2018-04-26T09:05:43.015Z,17.94
2018-04-26T09:08:11.483Z,18.07
2018-04-26T09:10:45.740Z,17.41
2018-04-26T09:13:14.243Z,16.81
2018-04-26T09:15:42.706Z,16.28
2018-04-26T09:18:11.098Z,15.63
2018-04-26T09:20:41.034Z,15.89
2018-04-26T09:23:11.460Z,15.81
2018-04-26T09:25:39.903Z,15.65
2018-04-26T09:28:08.374Z,16.41
2018-04-26T09:30:36.770Z,16.40
2018-04-26T09:33:07.245Z,16.28
2018-04-26T09:35:37.791Z,15.96
2018-04-26T09:38:08.387Z,15.34
2018-04-26T09:40:36.819Z,15.71
2018-04-26T09:43:05.296Z,16.15
2018-04-26T09:45:35.179Z,15.98
2018-04-26T09:48:05.755Z,16.04
2018-04-26T09:50:34.201Z,16.17
2018-04-26T09:53:02.598Z,16.43
2018-04-26T09:55:31.072Z,16.34
2018-04-26T09:57:59.527Z,16.26
2018-04-26T10:00:27.947Z,16.18
2018-04-26T10:02:56.415Z,16.42
2018-04-26T10:05:30.989Z,16.30
2018-04-26T10:07:59.413Z,16.49
2018-04-26T10:10:29.807Z,16.40
2018-04-26T10:12:58.281Z,16.36
2018-04-26T10:15:26.719Z,16.49
2018-04-26T10:17:55.141Z,16.31
2018-04-26T10:20:23.590Z,16.48
2018-04-26T10:22:51.991Z,16.26
2018-04-26T10:25:20.418Z,16.24
2018-04-26T10:27:48.944Z,16.29
2018-04-26T10:30:17.372Z,15.66
2018-04-26T10:32:45.842Z,15.86
2018-04-26T10:35:16.339Z,15.82
2018-04-26T10:37:44.791Z,16.00
2018-04-26T10:40:13.195Z,16.32
2018-04-26T10:42:41.621Z,16.79
2018-04-26T10:45:10.031Z,17.08
2018-04-26T10:47:38.498Z,18.01
2018-04-26T10:50:06.940Z,18.25
2018-04-26T10:52:35.358Z,18.56
2018-04-26T10:55:03.747Z,18.83
2018-04-26T10:57:32.202Z,19.03
2018-04-26T11:00:00.646Z,19.32
2018-04-26T11:02:29.084Z,19.05
2018-04-26T11:04:57.548Z,19.18
2018-04-26T11:07:25.953Z,19.21
2018-04-26T11:09:54.364Z,19.35
2018-04-26T11:12:22.783Z,19.59
2018-04-26T11:14:51.195Z,19.24
2018-04-26T11:17:19.801Z,18.65
2018-04-26T11:19:48.160Z,19.15
2018-04-26T11:22:16.615Z,18.81
2018-04-26T11:24:44.986Z,18.92
2018-04-26T11:27:16.726Z,18.71
2018-04-26T11:29:47.779Z,18.48
2018-04-26T11:32:17.524Z,18.30
2018-04-26T11:34:47.368Z,18.08
2018-04-26T11:37:17.796Z,17.89
2018-04-26T11:39:46.252Z,17.54
2018-04-26T11:42:14.726Z,17.07
2018-04-26T11:44:43.167Z,17.05
2018-04-26T11:47:11.604Z,16.74
2018-04-26T11:49:42.213Z,16.46
2018-04-26T11:52:10.616Z,16.35
2018-04-26T11:54:39.056Z,16.40
2018-04-26T11:57:08.759Z,16.53
2018-04-26T11:59:37.317Z,16.98
2018-04-26T12:02:05.748Z,17.05
2018-04-26T12:04:35.544Z,17.25
2018-04-26T12:07:05.987Z,17.36
2018-04-26T12:09:34.424Z,17.20
2018-04-26T12:12:02.854Z,16.76
2018-04-26T12:14:35.280Z,16.60
2018-04-26T12:17:05.214Z,16.56
2018-04-26T12:19:33.608Z,16.66
2018-04-26T12:22:04.198Z,17.03
2018-04-26T12:24:34.705Z,17.03
2018-04-26T12:27:06.611Z,17.08
2018-04-26T12:29:35.039Z,16.61
2018-04-26T12:32:03.490Z,16.44
2018-04-26T12:34:35.764Z,16.05
2018-04-26T12:37:04.198Z,15.98
2018-04-26T12:39:32.604Z,16.15
2018-04-26T12:42:01.056Z,16.30
2018-04-26T12:44:33.533Z,16.46
2018-04-26T12:47:01.955Z,16.42
2018-04-26T12:49:30.407Z,16.63
2018-04-26T12:52:00.976Z,16.80
2018-04-26T12:54:29.431Z,17.10
2018-04-26T12:56:57.868Z,16.97
2018-04-26T12:59:26.287Z,17.03
2018-04-26T13:01:55.944Z,16.85
2018-04-26T13:04:24.399Z,16.84
2018-04-26T13:06:56.719Z,16.76
2018-04-26T13:09:25.159Z,16.72
2018-04-26T13:11:57.639Z,16.30
2018-04-26T13:14:28.217Z,16.68
2018-04-26T13:16:56.657Z,16.86
2018-04-26T13:19:29.347Z,16.85
2018-04-26T13:21:57.812Z,17.12
2018-04-26T13:24:26.251Z,17.15
2018-04-26T13:26:54.648Z,16.92
2018-04-26T13:29:25.254Z,16.95
2018-04-26T13:31:53.707Z,16.87
2018-04-26T13:34:24.272Z,16.74
2018-04-26T13:36:54.849Z,16.67
2018-04-26T13:39:25.598Z,16.47
2018-04-26T13:41:54.007Z,16.12
2018-04-26T13:44:22.475Z,15.92
2018-04-26T13:46:51.000Z,15.88
2018-04-26T13:49:20.923Z,16.02
2018-04-26T13:51:51.548Z,16.21
2018-04-26T13:54:20.057Z,16.50
2018-04-26T13:56:50.627Z,16.58
2018-04-26T13:59:19.043Z,16.86
2018-04-26T14:01:47.455Z,17.07
2018-04-26T14:04:17.882Z,17.03
2018-04-26T14:06:46.368Z,16.84
2018-04-26T14:09:21.108Z,16.36
2018-04-26T14:11:49.573Z,16.32
2018-04-26T14:14:18.012Z,16.38
2018-04-26T14:16:48.628Z,16.51
2018-04-26T14:19:17.056Z,16.44
2018-04-26T14:21:46.799Z,16.53
2018-04-26T14:24:15.265Z,16.52
2018-04-26T14:26:43.687Z,16.94
2018-04-26T14:29:12.164Z,16.94
2018-04-26T14:31:40.590Z,17.04
2018-04-26T14:34:09.066Z,16.97
2018-04-26T14:36:37.493Z,16.40
2018-04-26T14:39:05.946Z,16.19
2018-04-26T14:41:34.367Z,16.02
2018-04-26T14:44:02.851Z,15.75
2018-04-26T14:46:31.275Z,15.69
2018-04-26T14:48:59.700Z,15.69
2018-04-26T14:51:28.129Z,15.66
2018-04-26T14:54:00.694Z,15.54
2018-04-26T14:56:31.263Z,15.56
2018-04-26T14:58:59.750Z,15.60
2018-04-26T15:01:28.158Z,15.68
2018-04-26T15:03:56.600Z,15.66
2018-04-26T15:06:25.064Z,15.63
2018-04-26T15:08:53.601Z,15.75
2018-04-26T15:11:24.152Z,15.87
2018-04-26T15:13:52.634Z,16.05
2018-04-26T15:16:23.349Z,16.25
2018-04-26T15:18:51.796Z,16.38
2018-04-26T15:21:20.239Z,16.10
2018-04-26T15:23:50.683Z,15.99
2018-04-26T15:26:19.128Z,16.15
2018-04-26T15:28:47.608Z,16.19
2018-04-26T15:31:16.015Z,16.16
2018-04-26T15:33:44.453Z,16.21
2018-04-26T15:36:12.909Z,16.08
2018-04-26T15:38:41.337Z,15.92
2018-04-26T15:41:09.797Z,15.91
2018-04-26T15:43:38.228Z,15.94
2018-04-26T15:46:06.643Z,15.93
2018-04-26T15:48:35.165Z,15.80
2018-04-26T15:51:03.623Z,15.68
2018-04-26T15:53:38.178Z,15.43
2018-04-26T15:56:12.660Z,15.31
2018-04-26T15:59:02.746Z,15.08
2018-04-26T16:15:13.456Z,15.00
2018-04-26T16:18:08.818Z,15.08
2018-04-26T16:20:49.483Z,14.87
2018-04-26T16:23:30.009Z,14.87
2018-04-26T16:26:04.508Z,14.58
2018-04-26T16:28:46.646Z,14.63
2018-04-26T16:31:27.156Z,14.48
2018-04-26T16:34:05.132Z,14.58
2018-04-26T16:36:39.704Z,14.62
2018-04-26T16:39:11.203Z,14.55
2018-04-26T16:41:39.674Z,14.65
2018-04-26T16:44:10.178Z,14.70
2018-04-26T16:46:38.655Z,14.78
2018-04-26T16:49:07.144Z,14.69
2018-04-26T16:51:35.572Z,14.34
2018-04-26T16:54:04.015Z,14.35
2018-04-26T16:56:32.500Z,14.30
2018-04-26T16:59:00.920Z,14.28
2018-04-26T17:01:29.609Z,14.21
2018-04-26T17:03:58.061Z,14.24
2018-04-26T17:06:26.468Z,14.16
2018-04-26T17:08:55.198Z,14.20
2018-04-26T17:11:23.604Z,14.17
2018-04-26T17:13:54.068Z,14.01
2018-04-26T17:16:24.456Z,14.04
2018-04-26T17:18:52.909Z,14.09
2018-04-26T17:21:21.334Z,14.12
2018-04-26T17:23:49.800Z,13.95
2018-04-26T17:26:18.184Z,13.89
2018-04-26T17:28:48.703Z,13.94
2018-04-26T17:31:17.111Z,13.79
2018-04-26T17:33:45.537Z,13.80
2018-04-26T17:36:14.004Z,13.69
2018-04-26T17:38:42.974Z,13.63
2018-04-26T17:41:11.491Z,13.59
2018-04-26T17:43:39.959Z,13.56
2018-04-26T17:46:08.452Z,13.41
2018-04-26T17:48:37.176Z,13.26
2018-04-26T17:51:05.630Z,13.30
2018-04-26T17:53:34.076Z,13.30
2018-04-26T17:56:02.603Z,13.35
2018-04-26T17:58:31.060Z,13.30
2018-04-26T18:00:59.567Z,13.01
2018-04-26T18:03:28.148Z,12.92
2018-04-26T18:05:56.590Z,12.87
2018-04-26T18:08:25.039Z,12.82
2018-04-26T18:10:55.488Z,12.91
2018-04-26T18:13:28.139Z,12.86
2018-04-26T18:15:58.558Z,12.83
2018-04-26T18:18:29.165Z,12.61
2018-04-26T18:20:59.706Z,12.60
2018-04-26T18:23:30.295Z,12.54
2018-04-26T18:25:58.727Z,12.62
2018-04-26T18:28:27.161Z,12.47
2018-04-26T18:30:55.644Z,12.42
2018-04-26T18:33:24.032Z,12.45
2018-04-26T18:35:52.911Z,12.39
2018-04-26T18:38:21.293Z,12.27
2018-04-26T18:40:54.124Z,12.28
2018-04-26T18:43:22.642Z,12.27
2018-04-26T18:45:51.095Z,12.20
2018-04-26T18:48:19.581Z,12.15
2018-04-26T18:50:48.093Z,12.11
2018-04-26T18:53:16.783Z,12.10
2018-04-26T18:55:45.296Z,12.05
2018-04-26T18:58:13.756Z,12.02
2018-04-26T19:00:42.524Z,12.01
2018-04-26T19:03:17.601Z,11.82
2018-04-26T19:05:46.015Z,11.74
2018-04-26T19:08:14.446Z,11.61
2018-04-26T19:10:42.908Z,11.51
2018-04-26T19:13:11.387Z,11.48
2018-04-26T19:15:39.869Z,11.50
2018-04-26T19:18:08.376Z,11.43
2018-04-26T19:20:36.843Z,11.40
2018-04-26T19:23:05.276Z,11.27
2018-04-26T19:25:33.742Z,11.49
2018-04-26T19:28:02.155Z,11.37
2018-04-26T19:30:30.579Z,11.03
2018-04-26T19:32:59.107Z,11.01
2018-04-26T19:35:29.716Z,10.88
2018-04-26T19:37:58.238Z,10.70
2018-04-26T19:40:28.966Z,10.72
2018-04-26T19:42:57.426Z,10.80
2018-04-26T19:45:25.857Z,10.77
2018-04-26T19:47:54.333Z,10.65
2018-04-26T19:50:24.764Z,10.40
2018-04-26T19:52:53.714Z,10.28
2018-04-26T19:55:22.127Z,10.12
2018-04-26T19:57:50.740Z,9.90
2018-04-26T20:00:19.382Z,9.75
2018-04-26T20:02:47.819Z,9.89
2018-04-26T20:05:16.261Z,9.64
2018-04-26T20:07:44.695Z,9.43
2018-04-26T20:10:13.151Z,9.42
2018-04-26T20:12:43.623Z,9.29
2018-04-26T20:15:13.925Z,9.01
2018-04-26T20:17:42.344Z,8.83
2018-04-26T20:20:10.790Z,8.86
2018-04-26T20:22:39.584Z,9.06
2018-04-26T20:25:08.040Z,9.27
2018-04-26T20:27:36.446Z,9.14
2018-04-26T20:30:07.041Z,9.00
2018-04-26T20:32:37.585Z,8.96
2018-04-26T20:35:06.360Z,8.82
2018-04-26T20:37:36.847Z,8.77
2018-04-26T20:40:05.286Z,8.96
2018-04-26T20:42:33.758Z,9.04
2018-04-26T20:45:02.359Z,9.03
2018-04-26T20:47:30.780Z,8.78
2018-04-26T20:49:59.432Z,8.85
2018-04-26T20:52:27.843Z,8.80
2018-04-26T20:54:58.357Z,8.57
2018-04-26T20:57:26.815Z,8.54
2018-04-26T20:59:55.227Z,8.52
2018-04-26T21:02:23.782Z,8.51
2018-04-26T21:04:52.184Z,8.56
2018-04-26T21:07:20.962Z,8.83
2018-04-26T21:09:51.246Z,8.78
2018-04-26T21:12:19.698Z,8.41
2018-04-26T21:14:48.228Z,8.44
2018-04-26T21:17:16.766Z,8.51
2018-04-26T21:19:45.214Z,8.39
2018-04-26T21:22:16.059Z,8.33
2018-04-26T21:24:44.452Z,8.21
2018-04-26T21:27:12.922Z,8.23
2018-04-26T21:29:41.424Z,8.27
2018-04-26T21:32:12.072Z,8.18
2018-04-26T21:34:40.556Z,8.18
2018-04-26T21:37:11.092Z,8.16
2018-04-26T21:39:39.600Z,8.12
2018-04-26T21:42:08.065Z,8.12
2018-04-26T21:44:39.000Z,8.14
2018-04-26T21:47:07.426Z,8.04
2018-04-26T21:49:37.948Z,7.84
2018-04-26T21:52:12.382Z,7.83
2018-04-26T21:54:48.992Z,7.70
2018-04-26T21:57:23.529Z,7.83
2018-04-26T22:00:00.190Z,7.90
2018-04-26T22:02:28.812Z,7.93
2018-04-26T22:05:01.201Z,7.82
2018-04-26T22:07:29.665Z,7.75
2018-04-26T22:10:01.078Z,7.86
2018-04-26T22:12:29.537Z,7.76
2018-04-26T22:14:58.525Z,7.73
2018-04-26T22:17:27.032Z,7.78
2018-04-26T22:19:58.001Z,7.69
2018-04-26T22:22:26.484Z,7.64
2018-04-26T22:24:58.084Z,7.58
2018-04-26T22:27:30.936Z,7.41
2018-04-26T22:29:59.473Z,7.47
2018-04-26T22:32:29.706Z,7.44
2018-04-26T22:34:58.459Z,7.48
2018-04-26T22:37:26.891Z,7.68
2018-04-26T22:39:57.794Z,7.69
2018-04-26T22:42:26.300Z,7.65
2018-04-26T22:44:56.924Z,7.51
2018-04-26T22:47:26.349Z,7.59
2018-04-26T22:49:56.908Z,7.69
2018-04-26T22:52:28.114Z,7.46
2018-04-26T22:54:56.572Z,7.45
2018-04-26T22:57:25.064Z,7.35
2018-04-26T22:59:55.667Z,7.33
2018-04-26T23:02:26.432Z,7.25
2018-04-26T23:04:57.077Z,7.33
2018-04-26T23:07:25.562Z,7.28
2018-04-26T23:09:54.042Z,7.36
2018-04-26T23:12:24.654Z,7.28
2018-04-26T23:14:53.130Z,7.13
2018-04-26T23:17:21.638Z,7.37
2018-04-26T23:19:50.108Z,7.28
2018-04-26T23:22:18.633Z,7.42
2018-04-26T23:24:47.184Z,7.50
2018-04-26T23:27:15.695Z,7.47
2018-04-26T23:29:44.162Z,7.46
2018-04-26T23:32:12.732Z,7.42
2018-04-26T23:34:41.230Z,7.39
2018-04-26T23:37:09.655Z,7.16
2018-04-26T23:39:38.133Z,7.28
2018-04-26T23:42:06.633Z,7.27
2018-04-26T23:44:35.315Z,7.31
2018-04-26T23:47:03.793Z,7.20
2018-04-26T23:49:34.348Z,7.15
2018-04-26T23:52:02.772Z,7.22
2018-04-26T23:54:33.380Z,7.28
2018-04-26T23:57:01.861Z,7.35
2018-04-26T23:59:30.365Z,7.22
